EREK1: Neosho River near Erie

                                SHEF ID:       EREK1     NEOSHO R NR ERIE, KS
STATION TYPE:

PRECIP STAGE RIV-FLOW BAT-LOAD
in ft cfs volt
Ccp-Rev Ccp-Rev Ccp-Rev Ccp-Rev
(America/Chicago)
06/12 00:00 ---- 14.96 4430 12.40
06/12 01:00 ---- 14.83 4250 12.38
06/12 02:00 ---- 14.73 4110 12.37
06/12 03:00 ---- 14.65 3990 12.36
06/12 04:00 ---- 14.55 3850 12.34
06/12 05:00 ---- 14.47 3740 12.31
06/12 06:00 ---- 14.37 3590 12.29
06/12 07:00 ---- 14.29 3480 12.27
06/12 08:00 ---- 14.18 3320 12.44
06/12 09:00 ---- 14.11 3220 12.76
06/12 10:00 ---- 14.04 3120 12.90
06/12 11:00 ---- 13.92 2950 12.99
06/12 12:00 ---- 13.87 2870 13.32
06/12 13:00 ---- 13.85 2840 13.32
06/12 14:00 ---- 13.78 2740 12.93
06/12 15:00 ---- 13.75 2700 12.91
06/12 16:00 ---- 13.74 2680 12.93
06/12 17:00 ---- 13.70 2630 12.93
06/12 18:00 ---- 13.68 2600 12.90
06/12 19:00 ---- 13.65 2550 12.90
06/12 20:00 ---- 13.62 2510 12.84
06/12 21:00 ---- 13.58 2450 12.59
06/12 22:00 ---- 13.56 2420 12.44
06/12 23:00 ---- ---- ---- ----
Data processed at Sat 13Jun2026 03:23 GMT

NOTICE: If you are parsing this page

Please convert to using our Data API. Starting early 2026 we will be migrating to: https://water.usace.army.mil with modern pages rendered in JavaScript. When this migration completes you will no longer be able to scrape this page! CWMSDataAPI (CDA)

Timeseries IDs (TSIDs)

TSIDs used from left to right in the data table
ERIE.Precip-Inc.Total.1Hour.1Hour.Ccp-Rev
ERIE.Stage.Inst.1Hour.0.Ccp-Rev
ERIE.Flow.Inst.1Hour.0.Ccp-Rev
ERIE.Volt-Battery Load.Inst.1Hour.0.Ccp-Rev

                            

All information presented herein is the property of the government of the United States of America and may be revised or deleted at any time without prior notice. Dissemination of this information without the expressed written consent of the Public Affairs Office, Tulsa District U.S. Army Corps of Engineers is strictly prohibited. These data are gathered electronically and, as presented, have NOT undergone any form of quality control. These data are NOT guaranteed to be valid or correct.